createdAt,value
2023-01-31T00:00:26.603Z,101806.34
2023-01-31T00:02:53.335Z,101813.50
2023-01-31T00:05:20.718Z,101807.78
2023-01-31T00:07:48.119Z,101794.34
2023-01-31T00:10:14.871Z,101805.72
2023-01-31T00:12:41.766Z,101805.97
2023-01-31T00:15:08.610Z,101805.38
2023-01-31T00:17:35.928Z,101813.72
2023-01-31T00:20:02.681Z,101812.50
2023-01-31T00:22:29.258Z,101804.84
2023-01-31T00:24:56.025Z,101805.34
2023-01-31T00:27:22.713Z,101811.63
2023-01-31T00:29:49.273Z,101807.88
2023-01-31T00:32:15.922Z,101804.69
2023-01-31T00:34:48.284Z,101802.88
2023-01-31T00:37:14.963Z,101811.91
2023-01-31T00:39:41.517Z,101806.81
2023-01-31T00:42:08.265Z,101810.72
2023-01-31T00:44:35.234Z,101815.19
2023-01-31T00:47:01.977Z,101807.91
2023-01-31T00:49:28.715Z,101808.63
2023-01-31T00:51:55.284Z,101805.22
2023-01-31T00:54:21.843Z,101805.31
2023-01-31T00:56:48.564Z,101806.16
2023-01-31T00:59:15.256Z,101809.13
2023-01-31T01:01:42.221Z,101810.81
2023-01-31T01:04:08.969Z,101800.28
2023-01-31T01:06:36.230Z,101798.09
2023-01-31T01:09:03.354Z,101795.31
2023-01-31T01:11:30.958Z,101793.63
2023-01-31T01:13:58.011Z,101796.19
2023-01-31T01:16:29.307Z,101799.56
2023-01-31T01:18:56.335Z,101800.19
2023-01-31T01:21:23.876Z,101783.69
2023-01-31T01:23:50.733Z,101794.47
2023-01-31T01:26:22.497Z,101792.16
2023-01-31T01:28:49.407Z,101789.47
2023-01-31T01:31:19.003Z,101787.03
2023-01-31T01:33:46.369Z,101787.09
2023-01-31T01:36:13.415Z,101793.97
2023-01-31T01:38:42.831Z,101788.88
2023-01-31T01:41:09.951Z,101790.91
2023-01-31T01:44:06.159Z,101790.53
2023-01-31T01:46:42.677Z,101785.03
2023-01-31T01:49:22.917Z,101783.22
2023-01-31T01:51:49.585Z,101773.63
2023-01-31T01:54:17.522Z,101769.59
2023-01-31T01:56:45.272Z,101772.19
2023-01-31T01:59:15.485Z,101765.72
2023-01-31T02:01:42.134Z,101767.47
2023-01-31T02:04:10.370Z,101764.03
2023-01-31T02:06:37.059Z,101761.72
2023-01-31T02:09:03.720Z,101761.13
2023-01-31T02:11:30.934Z,101761.59
2023-01-31T02:14:05.653Z,101757.34
2023-01-31T02:16:32.372Z,101755.28
2023-01-31T02:18:59.051Z,101752.94
2023-01-31T02:21:44.678Z,101753.88
2023-01-31T02:24:17.317Z,101747.09
2023-01-31T02:26:49.751Z,101758.28
2023-01-31T02:29:34.767Z,101758.03
2023-01-31T02:32:31.106Z,101760.22
2023-01-31T02:35:07.463Z,101763.22
2023-01-31T02:37:34.149Z,101757.72
2023-01-31T02:40:02.483Z,101763.91
2023-01-31T02:42:38.277Z,101762.91
2023-01-31T02:45:07.987Z,101766.38
2023-01-31T02:47:53.390Z,101764.31
2023-01-31T02:50:26.118Z,101759.59
2023-01-31T02:52:55.650Z,101764.06
2023-01-31T02:55:45.288Z,101768.53
2023-01-31T02:58:12.568Z,101767.31
2023-01-31T03:00:40.069Z,101766.38
2023-01-31T03:03:07.675Z,101761.66
2023-01-31T03:05:34.403Z,101766.31
2023-01-31T03:08:01.316Z,101764.56
2023-01-31T03:10:27.950Z,101757.72
2023-01-31T03:12:54.490Z,101771.25
2023-01-31T03:15:21.854Z,101762.75
2023-01-31T03:17:59.445Z,101761.47
2023-01-31T03:20:32.665Z,101762.50
2023-01-31T03:23:00.408Z,101762.13
2023-01-31T03:25:27.882Z,101756.56
2023-01-31T03:27:58.289Z,101763.22
2023-01-31T03:30:31.023Z,101766.84
2023-01-31T03:33:18.237Z,101768.13
2023-01-31T03:35:46.684Z,101770.72
2023-01-31T03:38:22.794Z,101772.41
2023-01-31T03:41:00.219Z,101764.50
2023-01-31T03:43:40.487Z,101763.09
2023-01-31T03:46:11.838Z,101764.06
2023-01-31T03:48:39.511Z,101763.25
2023-01-31T03:51:07.480Z,101757.78
2023-01-31T03:53:34.057Z,101759.53
2023-01-31T03:56:09.851Z,101767.69
2023-01-31T03:58:37.979Z,101763.50
2023-01-31T04:01:05.502Z,101767.56
2023-01-31T04:03:42.526Z,101761.81
2023-01-31T04:06:09.332Z,101766.69
2023-01-31T04:08:36.211Z,101755.97
2023-01-31T04:11:06.669Z,101754.66
2023-01-31T04:13:33.313Z,101769.84
2023-01-31T04:15:59.970Z,101755.31
2023-01-31T04:18:26.630Z,101763.66
2023-01-31T04:20:53.317Z,101769.59
2023-01-31T04:23:20.020Z,101773.22
2023-01-31T04:25:46.813Z,101773.22
2023-01-31T04:28:13.676Z,101770.25
2023-01-31T04:30:40.312Z,101763.16
2023-01-31T04:33:06.941Z,101761.22
2023-01-31T04:35:35.125Z,101757.84
2023-01-31T04:38:01.719Z,101759.97
2023-01-31T04:40:28.282Z,101752.53
2023-01-31T04:42:54.988Z,101753.69
2023-01-31T04:45:21.972Z,101755.63
2023-01-31T04:47:48.777Z,101758.22
2023-01-31T04:50:15.664Z,101753.59
2023-01-31T04:52:42.253Z,101755.56
2023-01-31T04:55:09.263Z,101756.88
2023-01-31T04:57:36.343Z,101761.56
2023-01-31T05:00:02.983Z,101757.88
2023-01-31T05:02:30.694Z,101757.22
2023-01-31T05:04:57.421Z,101759.28
2023-01-31T05:07:24.016Z,101759.47
2023-01-31T05:09:50.678Z,101753.47
2023-01-31T05:12:17.541Z,101759.19
2023-01-31T05:14:44.205Z,101758.72
2023-01-31T05:17:11.020Z,101757.44
2023-01-31T05:19:37.729Z,101761.91
2023-01-31T05:22:04.398Z,101762.75
2023-01-31T05:24:31.633Z,101761.91
2023-01-31T05:26:59.109Z,101773.22
2023-01-31T05:29:27.147Z,101777.34
2023-01-31T05:31:54.465Z,101772.84
2023-01-31T05:34:21.206Z,101769.44
2023-01-31T05:36:47.999Z,101768.41
2023-01-31T05:39:14.815Z,101781.06
2023-01-31T05:41:41.617Z,101777.66
2023-01-31T05:44:08.283Z,101775.97
2023-01-31T05:46:35.044Z,101782.75
2023-01-31T05:49:02.178Z,101790.03
2023-01-31T05:57:53.783Z,101793.41
2023-01-31T06:00:20.479Z,101785.78
2023-01-31T06:02:48.296Z,101785.56
2023-01-31T06:05:15.064Z,101776.84
2023-01-31T06:07:41.765Z,101779.03
2023-01-31T06:10:09.827Z,101776.66
2023-01-31T06:12:36.701Z,101781.50
2023-01-31T06:15:03.564Z,101788.75
2023-01-31T06:17:30.884Z,101792.47
2023-01-31T06:19:58.071Z,101783.72
2023-01-31T06:22:24.677Z,101784.66
2023-01-31T06:24:51.345Z,101777.06
2023-01-31T06:27:18.019Z,101793.34
2023-01-31T06:29:44.598Z,101787.81
2023-01-31T06:32:11.240Z,101786.47
2023-01-31T06:34:38.022Z,101792.00
2023-01-31T06:37:04.573Z,101790.94
2023-01-31T06:39:31.697Z,101786.00
2023-01-31T06:41:58.400Z,101794.31
2023-01-31T06:44:26.568Z,101790.75
2023-01-31T06:46:54.104Z,101798.69
2023-01-31T06:49:20.816Z,101801.13
2023-01-31T06:51:47.455Z,101803.34
2023-01-31T06:54:14.108Z,101796.53
2023-01-31T06:56:40.764Z,101798.69
2023-01-31T06:59:07.388Z,101792.31
2023-01-31T07:01:34.000Z,101799.97
2023-01-31T07:04:00.660Z,101803.81
2023-01-31T07:06:27.294Z,101803.16
2023-01-31T07:08:53.977Z,101801.59
2023-01-31T07:11:20.614Z,101809.06
2023-01-31T07:13:48.011Z,101813.06
2023-01-31T07:16:16.965Z,101812.47
2023-01-31T07:18:43.674Z,101819.09
2023-01-31T07:21:11.026Z,101818.06
2023-01-31T07:23:37.593Z,101826.81
2023-01-31T07:26:05.012Z,101825.13
2023-01-31T07:28:31.891Z,101826.81
2023-01-31T07:31:06.010Z,101831.50
2023-01-31T07:33:33.484Z,101829.53
2023-01-31T07:36:01.652Z,101827.59
2023-01-31T07:38:28.426Z,101832.69
2023-01-31T07:40:55.176Z,101833.97
2023-01-31T07:43:21.834Z,101844.63
2023-01-31T07:45:48.770Z,101839.91
2023-01-31T07:48:15.480Z,101844.19
2023-01-31T07:50:42.161Z,101845.03
2023-01-31T07:53:08.787Z,101843.09
2023-01-31T07:55:35.356Z,101845.66
2023-01-31T07:58:01.923Z,101847.97
2023-01-31T08:00:47.222Z,101850.97
2023-01-31T08:03:34.246Z,101850.16
2023-01-31T08:06:01.733Z,101853.41
2023-01-31T08:08:28.285Z,101861.72
2023-01-31T08:10:54.854Z,101859.09
2023-01-31T08:13:22.599Z,101867.56
2023-01-31T08:15:51.337Z,101861.06
2023-01-31T08:18:17.896Z,101870.56
2023-01-31T08:20:45.035Z,101881.75
2023-01-31T08:23:11.766Z,101872.63
2023-01-31T08:25:38.325Z,101876.38
2023-01-31T08:28:05.047Z,101866.00
2023-01-31T08:30:31.768Z,101875.91
2023-01-31T08:32:58.473Z,101877.47
2023-01-31T08:35:29.288Z,101884.91
2023-01-31T08:38:06.987Z,101875.00
2023-01-31T08:40:41.028Z,101886.44
2023-01-31T08:43:08.498Z,101875.56
2023-01-31T08:45:35.489Z,101884.50
2023-01-31T08:48:02.260Z,101891.13
2023-01-31T08:50:29.465Z,101883.25
2023-01-31T08:52:56.335Z,101881.66
2023-01-31T08:55:23.309Z,101883.72
2023-01-31T08:57:59.367Z,101886.47
2023-01-31T09:00:26.713Z,101891.69
2023-01-31T09:02:53.734Z,101888.41
2023-01-31T09:05:20.625Z,101891.91
2023-01-31T09:07:47.596Z,101895.59
2023-01-31T09:10:14.200Z,101890.56
2023-01-31T09:12:40.841Z,101891.84
2023-01-31T09:15:07.755Z,101891.19
2023-01-31T09:17:34.315Z,101882.06
2023-01-31T09:20:06.578Z,101887.50
2023-01-31T09:22:34.602Z,101897.84
2023-01-31T09:25:02.754Z,101900.94
2023-01-31T09:27:29.773Z,101893.38
2023-01-31T09:29:56.496Z,101898.63
2023-01-31T09:32:23.166Z,101895.00
2023-01-31T09:34:49.845Z,101898.69
2023-01-31T09:37:16.646Z,101906.06
2023-01-31T09:39:43.369Z,101897.59
2023-01-31T09:42:19.185Z,101904.47
2023-01-31T09:44:46.180Z,101908.31
2023-01-31T09:47:22.608Z,101900.25
2023-01-31T09:49:50.337Z,101903.91
2023-01-31T09:52:17.006Z,101902.34
2023-01-31T09:54:43.875Z,101905.16
2023-01-31T09:57:14.234Z,101910.38
2023-01-31T09:59:52.531Z,101913.09
2023-01-31T10:02:28.611Z,101922.03
2023-01-31T10:05:05.739Z,101916.88
2023-01-31T10:07:39.765Z,101915.38
2023-01-31T10:10:36.027Z,101920.72
2023-01-31T10:13:34.415Z,101925.25
2023-01-31T10:16:02.974Z,101924.34
2023-01-31T10:18:30.892Z,101927.69
2023-01-31T10:20:58.829Z,101920.72
2023-01-31T10:23:45.524Z,101921.63
2023-01-31T10:26:16.693Z,101920.66
2023-01-31T10:28:43.874Z,101923.69
2023-01-31T10:31:29.211Z,101926.19
2023-01-31T10:33:57.382Z,101929.91
2023-01-31T10:36:29.134Z,101926.81
2023-01-31T10:39:00.675Z,101923.47
2023-01-31T10:41:34.469Z,101931.66
2023-01-31T10:44:02.123Z,101934.81
2023-01-31T10:46:28.929Z,101929.28
2023-01-31T10:48:56.719Z,101941.78
2023-01-31T10:51:36.013Z,101935.50
2023-01-31T10:54:02.566Z,101935.25
2023-01-31T10:56:31.598Z,101930.81
2023-01-31T10:58:59.103Z,101927.69
2023-01-31T11:01:25.732Z,101927.34
2023-01-31T11:03:53.173Z,101922.38
2023-01-31T11:06:20.018Z,101918.63
2023-01-31T11:08:47.715Z,101920.44
2023-01-31T11:11:21.199Z,101919.25
2023-01-31T11:14:00.908Z,101917.34
2023-01-31T11:16:31.327Z,101910.69
2023-01-31T11:18:58.347Z,101902.38
2023-01-31T11:21:31.817Z,101897.97
2023-01-31T11:24:14.090Z,101899.44
2023-01-31T11:26:51.806Z,101889.09
2023-01-31T11:29:19.381Z,101891.09
2023-01-31T11:31:47.807Z,101889.22
2023-01-31T11:36:45.784Z,101885.03
2023-01-31T11:39:21.843Z,101888.03
2023-01-31T11:41:48.538Z,101885.75
2023-01-31T11:44:16.020Z,101874.66
2023-01-31T11:46:44.227Z,101876.97
2023-01-31T11:49:14.601Z,101873.38
2023-01-31T11:51:41.291Z,101869.16
2023-01-31T11:54:07.964Z,101868.22
2023-01-31T11:56:35.456Z,101863.09
2023-01-31T11:59:10.914Z,101863.25
2023-01-31T12:01:44.343Z,101851.94
2023-01-31T12:04:14.340Z,101845.19
2023-01-31T12:06:41.171Z,101848.81
2023-01-31T12:09:20.957Z,101847.84
2023-01-31T12:12:00.858Z,101833.25
2023-01-31T12:14:38.465Z,101827.59
2023-01-31T12:17:05.093Z,101834.97
2023-01-31T12:19:47.097Z,101829.97
2023-01-31T12:22:25.414Z,101814.78
2023-01-31T12:25:02.294Z,101819.41
2023-01-31T12:27:32.000Z,101813.56
2023-01-31T12:30:09.545Z,101817.19
2023-01-31T12:32:55.102Z,101805.28
2023-01-31T12:35:28.026Z,101805.13
2023-01-31T12:38:01.359Z,101803.63
2023-01-31T12:40:40.201Z,101791.78
2023-01-31T12:43:23.062Z,101789.25
2023-01-31T12:45:49.774Z,101786.72
2023-01-31T12:48:19.610Z,101782.31
2023-01-31T12:50:52.164Z,101777.41
2023-01-31T12:53:21.388Z,101771.75
2023-01-31T12:55:55.322Z,101775.44
2023-01-31T12:58:21.890Z,101772.09
2023-01-31T13:00:48.656Z,101768.25
2023-01-31T13:03:21.697Z,101771.47
2023-01-31T13:05:58.438Z,101764.63
2023-01-31T13:08:26.102Z,101755.00
2023-01-31T13:11:09.711Z,101763.03
2023-01-31T13:13:38.282Z,101756.00
2023-01-31T13:16:11.154Z,101747.31
2023-01-31T13:18:37.779Z,101746.31
2023-01-31T13:21:05.245Z,101740.09
2023-01-31T13:23:33.626Z,101732.69
2023-01-31T13:26:21.377Z,101732.84
2023-01-31T13:28:58.441Z,101725.63
2023-01-31T13:31:26.494Z,101723.16
2023-01-31T13:34:16.397Z,101720.56
2023-01-31T13:36:43.285Z,101710.22
2023-01-31T13:39:18.131Z,101707.50
2023-01-31T13:41:44.906Z,101702.63
2023-01-31T13:44:12.984Z,101707.00
2023-01-31T13:46:42.601Z,101682.59
2023-01-31T13:49:17.809Z,101693.25
2023-01-31T13:51:46.076Z,101699.41
2023-01-31T13:54:42.234Z,101695.44
2023-01-31T13:57:17.379Z,101692.88
2023-01-31T13:59:44.029Z,101685.31
2023-01-31T14:02:17.584Z,101685.63
2023-01-31T14:04:47.300Z,101672.41
2023-01-31T14:07:14.726Z,101676.31
2023-01-31T14:09:44.492Z,101680.34
2023-01-31T14:12:11.221Z,101670.41
2023-01-31T14:14:42.696Z,101670.00
2023-01-31T14:17:13.124Z,101670.38
2023-01-31T14:19:42.824Z,101664.50
2023-01-31T14:22:18.489Z,101664.19
2023-01-31T14:24:53.423Z,101663.56
2023-01-31T14:27:20.975Z,101656.66
2023-01-31T14:30:08.323Z,101655.38
2023-01-31T14:32:47.959Z,101655.19
2023-01-31T14:35:14.616Z,101649.69
2023-01-31T14:37:41.525Z,101654.28
2023-01-31T14:40:22.804Z,101653.81
2023-01-31T14:42:52.790Z,101642.34
2023-01-31T14:45:24.104Z,101644.06
2023-01-31T14:47:50.682Z,101644.13
2023-01-31T14:50:20.708Z,101635.16
2023-01-31T14:52:50.572Z,101633.47
2023-01-31T14:55:35.777Z,101632.69
2023-01-31T14:58:02.687Z,101629.38
2023-01-31T15:00:30.493Z,101637.84
2023-01-31T15:03:01.326Z,101624.63
2023-01-31T15:05:31.286Z,101624.91
2023-01-31T15:08:00.934Z,101626.06
2023-01-31T15:10:46.159Z,101635.34
2023-01-31T15:13:48.297Z,101625.50
2023-01-31T15:16:27.657Z,101627.22
2023-01-31T15:18:57.371Z,101622.13
2023-01-31T15:21:28.176Z,101626.09
2023-01-31T15:23:54.778Z,101614.84
2023-01-31T15:26:21.471Z,101609.47
2023-01-31T15:28:48.261Z,101609.47
2023-01-31T15:31:22.528Z,101615.94
2023-01-31T15:33:53.243Z,101612.00
2023-01-31T15:36:33.548Z,101609.75
2023-01-31T15:39:04.906Z,101619.84
2023-01-31T15:41:44.463Z,101618.75
2023-01-31T15:44:12.295Z,101616.75
2023-01-31T15:46:38.995Z,101616.47
2023-01-31T15:49:25.789Z,101622.63
2023-01-31T15:52:08.888Z,101616.72
2023-01-31T15:54:35.606Z,101612.53
2023-01-31T15:57:02.542Z,101615.91
2023-01-31T15:59:29.599Z,101617.28
2023-01-31T16:02:03.495Z,101608.56
2023-01-31T16:04:30.158Z,101614.75
2023-01-31T16:06:56.721Z,101620.91
2023-01-31T16:09:24.683Z,101605.75
2023-01-31T16:11:51.337Z,101613.59
2023-01-31T16:14:17.971Z,101611.38
2023-01-31T16:16:44.793Z,101611.91
2023-01-31T16:19:13.849Z,101601.22
2023-01-31T16:21:43.536Z,101608.22
2023-01-31T16:24:17.083Z,101602.34
2023-01-31T16:26:52.841Z,101605.09
2023-01-31T16:29:19.734Z,101607.38
2023-01-31T16:31:51.225Z,101611.31
2023-01-31T16:34:21.043Z,101602.28
2023-01-31T16:36:50.710Z,101609.28
2023-01-31T16:39:29.240Z,101603.97
2023-01-31T16:41:58.372Z,101606.19
2023-01-31T16:44:26.925Z,101610.38
2023-01-31T16:46:53.697Z,101611.81
2023-01-31T16:49:38.674Z,101602.81
2023-01-31T16:52:16.647Z,101601.38
2023-01-31T16:54:50.276Z,101594.38
2023-01-31T16:57:24.151Z,101601.38
2023-01-31T16:59:51.480Z,101603.88
2023-01-31T17:02:22.384Z,101601.03
2023-01-31T17:04:50.129Z,101611.72
2023-01-31T17:07:21.499Z,101612.25
2023-01-31T17:09:48.222Z,101608.28
2023-01-31T17:12:17.372Z,101606.84
2023-01-31T17:14:43.973Z,101604.84
2023-01-31T17:17:16.171Z,101607.63
2023-01-31T17:19:48.266Z,101613.78
2023-01-31T17:22:15.401Z,101613.47
2023-01-31T17:24:42.011Z,101610.66
2023-01-31T17:27:10.456Z,101614.25
2023-01-31T17:29:37.014Z,101619.84
2023-01-31T17:32:03.636Z,101612.50
2023-01-31T17:34:30.448Z,101615.25
2023-01-31T17:36:57.088Z,101607.69
2023-01-31T17:39:23.741Z,101614.94
2023-01-31T17:41:50.541Z,101612.94
2023-01-31T17:44:17.225Z,101617.38
2023-01-31T17:46:44.310Z,101617.34
2023-01-31T17:49:11.212Z,101617.88
2023-01-31T17:51:38.074Z,101613.94
2023-01-31T17:54:04.754Z,101608.28
2023-01-31T17:56:31.432Z,101615.53
2023-01-31T17:58:57.999Z,101609.03
2023-01-31T18:01:24.618Z,101614.59
2023-01-31T18:03:51.487Z,101620.13
2023-01-31T18:06:19.012Z,101619.25
2023-01-31T18:08:45.626Z,101630.38
2023-01-31T18:11:14.324Z,101618.03
2023-01-31T18:13:41.095Z,101616.88
2023-01-31T18:16:15.083Z,101618.53
2023-01-31T18:18:42.003Z,101616.78
2023-01-31T18:21:09.237Z,101618.41
2023-01-31T18:23:35.856Z,101610.53
2023-01-31T18:26:03.815Z,101620.53
2023-01-31T18:28:30.375Z,101617.16
2023-01-31T18:31:01.169Z,101620.47
2023-01-31T18:33:27.955Z,101617.34
2023-01-31T18:35:58.212Z,101613.13
2023-01-31T18:38:25.092Z,101617.56
2023-01-31T18:40:51.702Z,101606.03
2023-01-31T18:43:18.695Z,101624.47
2023-01-31T18:45:45.356Z,101626.09
2023-01-31T18:48:11.917Z,101621.28
2023-01-31T18:50:38.519Z,101618.16
2023-01-31T18:53:05.614Z,101618.44
2023-01-31T18:55:32.152Z,101622.59
2023-01-31T18:57:58.757Z,101619.22
2023-01-31T19:00:25.582Z,101622.25
2023-01-31T19:02:52.452Z,101626.16
2023-01-31T19:05:19.601Z,101618.28
2023-01-31T19:07:46.511Z,101618.03
2023-01-31T19:10:13.273Z,101615.50
2023-01-31T19:12:39.959Z,101614.91
2023-01-31T19:15:07.411Z,101613.50
2023-01-31T19:17:34.087Z,101614.84
2023-01-31T19:20:00.648Z,101611.44
2023-01-31T19:22:28.896Z,101612.81
2023-01-31T19:24:56.632Z,101606.38
2023-01-31T19:27:23.702Z,101609.44
2023-01-31T19:29:50.459Z,101610.81
2023-01-31T19:32:17.014Z,101617.50
2023-01-31T19:34:43.578Z,101608.53
2023-01-31T19:37:10.310Z,101604.03
2023-01-31T19:39:37.093Z,101608.78
2023-01-31T19:42:04.837Z,101609.88
2023-01-31T19:44:32.061Z,101604.56
2023-01-31T19:46:58.965Z,101607.34
2023-01-31T19:49:25.527Z,101613.78
2023-01-31T19:51:52.200Z,101611.25
2023-01-31T19:54:19.823Z,101609.53
2023-01-31T19:56:46.445Z,101604.22
2023-01-31T19:59:13.775Z,101608.38
2023-01-31T20:01:40.331Z,101600.50
2023-01-31T20:04:06.967Z,101602.72
2023-01-31T20:06:35.252Z,101601.00
2023-01-31T20:09:04.839Z,101602.13
2023-01-31T20:11:31.561Z,101600.44
2023-01-31T20:13:58.431Z,101593.75
2023-01-31T20:16:25.327Z,101602.97
2023-01-31T20:18:53.097Z,101595.44
2023-01-31T20:21:21.031Z,101604.69
2023-01-31T20:23:48.718Z,101600.16
2023-01-31T20:26:15.681Z,101602.13
2023-01-31T20:28:43.592Z,101603.25
2023-01-31T20:31:10.969Z,101608.81
2023-01-31T20:33:37.556Z,101608.22
2023-01-31T20:36:04.621Z,101599.84
2023-01-31T20:38:31.421Z,101607.38
2023-01-31T20:40:57.989Z,101604.59
2023-01-31T20:43:25.344Z,101609.34
2023-01-31T20:45:52.122Z,101602.06
2023-01-31T20:48:18.983Z,101597.31
2023-01-31T20:50:53.465Z,101603.75
2023-01-31T20:53:20.030Z,101599.28
2023-01-31T20:55:47.120Z,101599.28
2023-01-31T20:58:13.935Z,101592.56
2023-01-31T21:00:40.661Z,101599.00
2023-01-31T21:03:07.303Z,101595.09
2023-01-31T21:05:38.724Z,101598.50
2023-01-31T21:08:05.792Z,101594.59
2023-01-31T21:10:32.665Z,101595.44
2023-01-31T21:12:59.479Z,101596.31
2023-01-31T21:15:27.847Z,101601.88
2023-01-31T21:17:55.258Z,101603.25
2023-01-31T21:20:22.231Z,101607.66
2023-01-31T21:22:49.491Z,101608.69
2023-01-31T21:25:16.156Z,101602.16
2023-01-31T21:27:43.311Z,101607.09
2023-01-31T21:30:10.299Z,101600.56
2023-01-31T21:32:36.892Z,101601.34
2023-01-31T21:35:03.688Z,101608.28
2023-01-31T21:37:30.381Z,101604.06
2023-01-31T21:39:56.959Z,101600.66
2023-01-31T21:42:23.679Z,101604.81
2023-01-31T21:44:50.296Z,101613.69
2023-01-31T21:47:16.904Z,101606.69
2023-01-31T21:49:43.825Z,101610.22
2023-01-31T21:52:10.372Z,101612.09
2023-01-31T21:54:37.428Z,101610.06
2023-01-31T21:57:04.240Z,101610.56
2023-01-31T21:59:32.522Z,101609.34
2023-01-31T22:01:59.486Z,101605.38
2023-01-31T22:04:26.315Z,101598.59
2023-01-31T22:06:53.640Z,101593.53
2023-01-31T22:09:20.213Z,101595.72
2023-01-31T22:11:48.221Z,101591.50
2023-01-31T22:14:15.240Z,101592.06
2023-01-31T22:16:42.201Z,101586.84
2023-01-31T22:19:10.129Z,101585.50
2023-01-31T22:21:36.800Z,101588.00
2023-01-31T22:24:03.952Z,101586.94
2023-01-31T22:26:31.760Z,101586.94
2023-01-31T22:28:59.435Z,101586.34
2023-01-31T22:31:26.178Z,101585.22
2023-01-31T22:33:52.902Z,101585.81
2023-01-31T22:36:19.613Z,101589.72
2023-01-31T22:38:46.353Z,101595.56
2023-01-31T22:41:13.535Z,101593.25
2023-01-31T22:43:40.904Z,101595.97
2023-01-31T22:46:08.157Z,101599.88
2023-01-31T22:48:35.142Z,101590.91
2023-01-31T22:51:03.667Z,101591.72
2023-01-31T22:53:31.281Z,101591.72
2023-01-31T22:56:05.249Z,101598.16
2023-01-31T22:58:32.105Z,101595.88
2023-01-31T23:00:58.741Z,101598.31
2023-01-31T23:03:25.598Z,101597.13
2023-01-31T23:05:52.315Z,101593.75
2023-01-31T23:08:19.034Z,101599.00
2023-01-31T23:10:45.724Z,101605.91
2023-01-31T23:13:12.529Z,101603.53
2023-01-31T23:15:39.595Z,101603.66
2023-01-31T23:18:06.221Z,101594.94
2023-01-31T23:20:33.085Z,101595.81
2023-01-31T23:22:59.745Z,101588.88
2023-01-31T23:25:26.879Z,101595.06
2023-01-31T23:27:55.011Z,101590.69
2023-01-31T23:30:22.007Z,101600.72
2023-01-31T23:32:48.816Z,101590.34
2023-01-31T23:35:15.670Z,101601.13
2023-01-31T23:37:42.771Z,101601.63
2023-01-31T23:40:09.818Z,101598.00
2023-01-31T23:42:36.513Z,101602.47
2023-01-31T23:45:03.131Z,101604.19
2023-01-31T23:47:29.817Z,101605.03
2023-01-31T23:49:56.520Z,101603.31
2023-01-31T23:52:23.053Z,101600.78
2023-01-31T23:54:49.643Z,101612.78
2023-01-31T23:57:16.305Z,101607.22
2023-01-31T23:59:42.989Z,101601.63
